createdAt,value
2023-05-01T00:00:32.453Z,26.52
2023-05-01T00:03:37.058Z,23.65
2023-05-01T00:06:41.772Z,20.52
2023-05-01T00:09:46.608Z,31.33
2023-05-01T00:12:51.085Z,20.38
2023-05-01T00:15:55.951Z,25.55
2023-05-01T00:19:00.292Z,23.70
2023-05-01T00:22:04.724Z,24.02
2023-05-01T00:25:10.562Z,22.88
2023-05-01T00:28:14.671Z,23.33
2023-05-01T00:31:18.935Z,19.05
2023-05-01T00:34:25.072Z,21.92
2023-05-01T00:37:29.723Z,23.75
2023-05-01T00:40:47.703Z,25.10
2023-05-01T00:43:52.278Z,18.48
2023-05-01T00:50:03.565Z,21.08
2023-05-01T00:53:08.072Z,18.98
2023-05-01T00:56:12.598Z,18.67
2023-05-01T00:59:18.265Z,19.35
2023-05-01T01:02:23.199Z,18.23
2023-05-01T01:05:30.265Z,19.45
2023-05-01T01:09:08.335Z,17.35
2023-05-01T01:12:44.338Z,24.70
2023-05-01T01:16:15.940Z,19.15
2023-05-01T01:19:44.787Z,17.58
2023-05-01T01:23:22.196Z,21.02
2023-05-01T01:27:02.344Z,17.92
2023-05-01T01:31:14.180Z,15.43
2023-05-01T01:34:33.547Z,14.35
2023-05-01T01:38:17.891Z,24.38
2023-05-01T01:41:31.611Z,17.83
2023-05-01T01:44:56.210Z,21.42
2023-05-01T01:48:03.008Z,20.50
2023-05-01T01:51:16.514Z,15.65
2023-05-01T01:54:30.372Z,18.55
2023-05-01T01:57:39.391Z,13.98
2023-05-01T02:00:45.928Z,20.92
2023-05-01T02:03:52.904Z,20.50
2023-05-01T02:06:58.515Z,20.63
2023-05-01T02:10:05.941Z,19.17
2023-05-01T02:13:13.364Z,20.33
2023-05-01T02:16:19.367Z,18.73
2023-05-01T02:19:25.088Z,16.23
2023-05-01T02:22:33.510Z,18.40
2023-05-01T02:25:39.633Z,16.63
2023-05-01T02:28:44.352Z,15.43
2023-05-01T02:31:48.661Z,17.88
2023-05-01T02:34:53.676Z,14.88
2023-05-01T02:37:58.081Z,18.10
2023-05-01T02:41:03.948Z,14.10
2023-05-01T02:44:11.368Z,17.02
2023-05-01T02:47:21.448Z,18.35
2023-05-01T02:50:27.383Z,14.30
2023-05-01T02:53:34.083Z,12.88
2023-05-01T02:56:38.725Z,12.63
2023-05-01T02:59:42.947Z,18.45
2023-05-01T03:02:47.425Z,15.70
2023-05-01T03:05:52.164Z,11.98
2023-05-01T03:08:56.491Z,12.43
2023-05-01T03:15:06.371Z,13.60
2023-05-01T03:18:10.833Z,12.23
2023-05-01T03:21:15.677Z,12.35
2023-05-01T03:24:19.951Z,18.50
2023-05-01T03:27:24.180Z,13.05
2023-05-01T03:30:28.170Z,15.07
2023-05-01T03:33:32.462Z,15.25
2023-05-01T03:36:37.245Z,13.23
2023-05-01T03:39:41.969Z,14.90
2023-05-01T03:42:47.642Z,11.48
2023-05-01T03:45:52.978Z,13.07
2023-05-01T03:48:57.832Z,12.23
2023-05-01T03:52:02.320Z,12.98
2023-05-01T03:55:08.006Z,11.15
2023-05-01T03:58:12.782Z,15.43
2023-05-01T04:01:17.144Z,13.95
2023-05-01T04:04:21.457Z,14.65
2023-05-01T04:07:26.232Z,10.70
2023-05-01T04:10:30.912Z,13.85
2023-05-01T04:13:35.475Z,10.70
2023-05-01T04:16:39.818Z,11.07
2023-05-01T04:19:44.388Z,14.80
2023-05-01T04:22:49.205Z,9.30
2023-05-01T04:25:53.998Z,12.05
2023-05-01T04:28:58.398Z,17.17
2023-05-01T04:32:02.890Z,12.75
2023-05-01T04:35:07.912Z,12.82
2023-05-01T04:38:11.955Z,13.13
2023-05-01T04:41:16.388Z,10.23
2023-05-01T04:44:20.740Z,16.67
2023-05-01T04:47:25.106Z,14.00
2023-05-01T04:50:29.336Z,11.18
2023-05-01T04:56:37.681Z,11.57
2023-05-01T04:59:43.257Z,8.65
2023-05-01T05:02:47.868Z,10.20
2023-05-01T05:05:52.487Z,13.50
2023-05-01T05:08:57.855Z,15.93
2023-05-01T05:12:03.760Z,15.70
2023-05-01T05:15:08.743Z,10.85
2023-05-01T05:18:13.405Z,12.63
2023-05-01T05:21:18.292Z,10.85
2023-05-01T05:24:22.669Z,12.85
2023-05-01T05:27:26.899Z,12.50
2023-05-01T05:33:35.533Z,11.48
2023-05-01T05:36:40.022Z,8.40
2023-05-01T05:39:44.395Z,8.38
2023-05-01T05:42:49.008Z,9.88
2023-05-01T05:45:58.537Z,16.63
2023-05-01T05:49:04.610Z,13.85
2023-05-01T05:52:08.574Z,14.63
2023-05-01T05:55:13.054Z,11.88
2023-05-01T05:58:20.080Z,9.35
2023-05-01T06:01:24.333Z,16.30
2023-05-01T06:04:28.776Z,12.80
2023-05-01T06:07:33.388Z,13.85
2023-05-01T06:10:39.644Z,14.05
2023-05-01T06:13:43.913Z,9.90
2023-05-01T06:16:48.364Z,14.07
2023-05-01T06:19:53.726Z,14.20
2023-05-01T06:22:58.797Z,12.13
2023-05-01T06:26:03.247Z,17.30
2023-05-01T06:29:07.511Z,10.27
2023-05-01T06:32:11.846Z,13.40
2023-05-01T06:35:16.384Z,13.77
2023-05-01T06:38:21.225Z,9.68
2023-05-01T06:41:25.916Z,13.77
2023-05-01T06:44:32.606Z,13.60
2023-05-01T06:47:37.055Z,6.00
2023-05-01T06:50:41.892Z,10.80
2023-05-01T06:53:46.384Z,9.00
2023-05-01T06:56:50.542Z,17.15
2023-05-01T06:59:54.930Z,10.18
2023-05-01T07:02:59.598Z,11.98
2023-05-01T07:06:04.470Z,12.73
2023-05-01T07:09:09.446Z,11.40
2023-05-01T07:12:13.878Z,9.23
2023-05-01T07:15:18.270Z,11.77
2023-05-01T07:18:22.672Z,8.43
2023-05-01T07:21:27.344Z,8.25
2023-05-01T07:24:31.626Z,19.55
2023-05-01T07:27:36.113Z,8.35
2023-05-01T07:30:41.015Z,8.43
2023-05-01T07:33:45.792Z,10.23
2023-05-01T07:36:49.867Z,9.73
2023-05-01T07:39:54.124Z,11.40
2023-05-01T07:42:58.585Z,11.27
2023-05-01T07:46:03.354Z,13.20
2023-05-01T07:49:08.075Z,9.90
2023-05-01T07:52:12.559Z,6.38
2023-05-01T07:55:19.223Z,7.03
2023-05-01T07:58:23.715Z,9.35
2023-05-01T08:01:28.342Z,9.32
2023-05-01T08:04:32.809Z,9.10
2023-05-01T08:07:37.633Z,8.95
2023-05-01T08:10:41.884Z,10.07
2023-05-01T08:13:46.314Z,9.65
2023-05-01T08:16:55.460Z,9.90
2023-05-01T08:20:00.877Z,8.52
2023-05-01T08:23:05.712Z,11.98
2023-05-01T08:26:10.152Z,9.15
2023-05-01T08:29:14.827Z,9.57
2023-05-01T08:32:19.557Z,8.38
2023-05-01T08:35:24.001Z,15.27
2023-05-01T08:38:28.186Z,7.63
2023-05-01T08:41:33.192Z,6.68
2023-05-01T08:44:41.152Z,8.00
2023-05-01T08:47:46.554Z,9.35
2023-05-01T08:50:55.156Z,13.57
2023-05-01T08:54:02.108Z,11.10
2023-05-01T08:57:10.250Z,10.77
2023-05-01T09:00:20.851Z,12.02
2023-05-01T09:03:28.915Z,7.90
2023-05-01T09:06:34.008Z,11.05
2023-05-01T09:09:39.019Z,5.05
2023-05-01T09:12:47.232Z,8.43
2023-05-01T09:15:52.015Z,7.13
2023-05-01T09:18:57.260Z,6.80
2023-05-01T09:22:01.779Z,8.93
2023-05-01T09:25:07.001Z,8.60
2023-05-01T09:28:11.887Z,6.38
2023-05-01T09:31:30.401Z,10.27
2023-05-01T09:34:35.142Z,12.38
2023-05-01T09:37:39.803Z,7.60
2023-05-01T09:40:43.916Z,4.65
2023-05-01T09:44:19.337Z,6.28
2023-05-01T09:47:23.798Z,5.90
2023-05-01T09:50:34.210Z,8.07
2023-05-01T09:53:41.723Z,7.32
2023-05-01T09:56:50.013Z,6.75
2023-05-01T10:00:08.462Z,6.47
2023-05-01T10:03:15.017Z,7.53
2023-05-01T10:06:29.243Z,9.32
2023-05-01T10:09:33.720Z,3.63
2023-05-01T10:12:38.139Z,6.95
2023-05-01T10:15:44.288Z,5.70
2023-05-01T10:18:48.540Z,9.57
2023-05-01T10:21:53.567Z,3.97
2023-05-01T10:24:59.344Z,9.70
2023-05-01T10:28:07.400Z,4.65
2023-05-01T10:31:13.410Z,4.97
2023-05-01T10:34:22.114Z,7.30
2023-05-01T10:38:04.911Z,8.60
2023-05-01T10:41:09.959Z,6.78
2023-05-01T10:44:26.944Z,7.80
2023-05-01T10:47:34.707Z,7.22
2023-05-01T10:51:09.318Z,6.95
2023-05-01T10:54:16.344Z,9.13
2023-05-01T10:57:44.440Z,6.80
2023-05-01T11:01:27.269Z,6.90
2023-05-01T11:04:50.847Z,6.32
2023-05-01T11:08:40.220Z,6.57
2023-05-01T11:11:44.398Z,8.23
2023-05-01T11:15:03.844Z,6.47
2023-05-01T11:18:08.139Z,8.25
2023-05-01T11:21:14.941Z,5.30
2023-05-01T11:24:20.120Z,6.15
2023-05-01T11:27:25.374Z,6.38
2023-05-01T11:30:40.563Z,5.85
2023-05-01T11:33:45.246Z,6.50
2023-05-01T11:36:53.831Z,9.35
2023-05-01T11:39:58.565Z,7.82
2023-05-01T11:43:08.318Z,11.30
2023-05-01T11:46:13.662Z,8.18
2023-05-01T11:49:28.746Z,6.18
2023-05-01T11:52:49.658Z,8.02
2023-05-01T11:55:54.484Z,7.22
2023-05-01T11:59:16.729Z,8.48
2023-05-01T12:02:21.412Z,5.95
2023-05-01T12:05:28.761Z,4.75
2023-05-01T12:08:33.551Z,4.32
2023-05-01T12:11:39.750Z,3.33
2023-05-01T12:14:44.408Z,4.72
2023-05-01T12:17:48.583Z,5.78
2023-05-01T12:20:55.200Z,7.10
2023-05-01T12:24:10.506Z,4.40
2023-05-01T12:27:15.082Z,8.68
2023-05-01T12:30:26.824Z,5.30
2023-05-01T12:33:31.782Z,4.95
2023-05-01T12:36:37.482Z,7.05
2023-05-01T12:39:44.987Z,5.65
2023-05-01T12:42:57.799Z,7.90
2023-05-01T12:46:04.974Z,7.80
2023-05-01T12:49:09.540Z,7.85
2023-05-01T12:52:13.749Z,6.47
2023-05-01T12:55:18.089Z,5.55
2023-05-01T12:58:23.763Z,6.35
2023-05-01T13:01:28.906Z,3.90
2023-05-01T13:04:35.150Z,8.23
2023-05-01T13:07:40.297Z,7.38
2023-05-01T13:10:44.628Z,3.85
2023-05-01T13:13:50.081Z,5.88
2023-05-01T13:16:55.737Z,5.95
2023-05-01T13:20:05.574Z,3.70
2023-05-01T13:23:13.056Z,8.18
2023-05-01T13:26:17.454Z,4.63
2023-05-01T13:29:23.653Z,4.18
2023-05-01T13:32:28.533Z,8.00
2023-05-01T13:35:33.271Z,5.25
2023-05-01T13:38:45.906Z,8.20
2023-05-01T13:41:54.235Z,12.95
2023-05-01T13:44:58.567Z,6.30
2023-05-01T13:48:04.695Z,6.65
2023-05-01T13:51:11.537Z,9.63
2023-05-01T13:54:16.719Z,9.18
2023-05-01T13:57:23.201Z,12.32
2023-05-01T14:00:27.456Z,8.32
2023-05-01T14:03:40.824Z,8.13
2023-05-01T14:06:47.517Z,7.55
2023-05-01T14:09:59.892Z,5.13
2023-05-01T14:13:05.141Z,6.60
2023-05-01T14:16:22.073Z,6.07
2023-05-01T14:19:27.271Z,6.15
2023-05-01T14:22:46.929Z,5.40
2023-05-01T14:25:51.625Z,4.72
2023-05-01T14:28:56.054Z,4.85
2023-05-01T14:32:04.523Z,5.13
2023-05-01T14:35:10.371Z,4.47
2023-05-01T14:38:17.366Z,10.77
2023-05-01T14:41:21.907Z,6.03
2023-05-01T14:44:30.818Z,6.10
2023-05-01T14:47:36.067Z,4.82
2023-05-01T14:50:41.158Z,3.33
2023-05-01T14:53:46.108Z,7.22
2023-05-01T14:56:50.648Z,7.93
2023-05-01T14:59:54.945Z,10.23
2023-05-01T15:03:00.153Z,6.03
2023-05-01T15:06:05.801Z,7.32
2023-05-01T15:09:10.161Z,10.68
2023-05-01T15:12:14.363Z,6.43
2023-05-01T15:15:18.904Z,9.73
2023-05-01T15:18:23.765Z,12.60
2023-05-01T15:21:28.296Z,8.73
2023-05-01T15:24:32.534Z,4.50
2023-05-01T15:27:37.022Z,6.63
2023-05-01T15:30:46.466Z,4.63
2023-05-01T15:33:50.780Z,7.95
2023-05-01T15:36:55.188Z,5.45
2023-05-01T15:39:59.561Z,7.03
2023-05-01T15:43:06.454Z,6.05
2023-05-01T15:46:11.552Z,7.20
2023-05-01T15:49:16.025Z,7.40
2023-05-01T15:52:20.224Z,5.53
2023-05-01T15:55:24.468Z,10.88
2023-05-01T15:58:28.686Z,11.20
2023-05-01T16:01:35.381Z,3.60
2023-05-01T16:04:40.352Z,6.50
2023-05-01T16:10:50.182Z,6.00
2023-05-01T16:13:54.944Z,7.30
2023-05-01T16:16:59.627Z,7.50
2023-05-01T16:20:10.953Z,8.68
2023-05-01T16:23:15.685Z,5.43
2023-05-01T16:26:29.784Z,7.55
2023-05-01T16:29:35.414Z,5.88
2023-05-01T16:32:41.036Z,2.92
2023-05-01T16:35:49.061Z,7.40
2023-05-01T16:38:53.683Z,8.60
2023-05-01T16:41:58.416Z,6.65
2023-05-01T16:45:08.492Z,5.38
2023-05-01T16:48:23.167Z,4.80
2023-05-01T16:54:35.770Z,6.28
2023-05-01T16:57:42.406Z,7.72
2023-05-01T17:00:48.470Z,5.03
2023-05-01T17:03:53.133Z,4.32
2023-05-01T17:06:58.181Z,9.30
2023-05-01T17:10:04.233Z,7.25
2023-05-01T17:13:09.027Z,6.28
2023-05-01T17:16:13.625Z,9.98
2023-05-01T17:19:17.955Z,5.55
2023-05-01T17:22:23.697Z,3.42
2023-05-01T17:25:28.387Z,5.72
2023-05-01T17:28:33.147Z,4.75
2023-05-01T17:31:37.619Z,5.57
2023-05-01T17:34:42.103Z,4.97
2023-05-01T17:37:46.336Z,5.93
2023-05-01T17:40:50.780Z,5.57
2023-05-01T17:43:55.267Z,4.47
2023-05-01T17:46:59.486Z,4.97
2023-05-01T17:50:04.750Z,6.55
2023-05-01T17:53:09.598Z,4.82
2023-05-01T17:56:14.453Z,6.70
2023-05-01T17:59:18.868Z,4.38
2023-05-01T18:02:23.845Z,2.65
2023-05-01T18:05:28.098Z,5.70
2023-05-01T18:08:32.480Z,3.45
2023-05-01T18:11:36.817Z,5.82
2023-05-01T18:14:41.238Z,4.32
2023-05-01T18:20:49.862Z,6.97
2023-05-01T18:23:54.161Z,3.97
2023-05-01T18:26:59.916Z,6.10
2023-05-01T18:30:05.743Z,3.85
2023-05-01T18:33:10.871Z,6.95
2023-05-01T18:36:15.155Z,12.02
2023-05-01T18:39:23.615Z,10.98
2023-05-01T18:42:27.960Z,7.35
2023-05-01T18:45:40.649Z,9.20
2023-05-01T18:48:45.104Z,7.60
2023-05-01T18:54:54.112Z,4.57
2023-05-01T19:04:07.307Z,8.35
2023-05-01T19:07:11.638Z,6.32
2023-05-01T19:10:15.870Z,5.80
2023-05-01T19:13:20.046Z,4.60
2023-05-01T19:16:26.331Z,8.05
2023-05-01T19:19:31.565Z,5.25
2023-05-01T19:22:36.349Z,5.38
2023-05-01T19:25:41.167Z,8.73
2023-05-01T19:28:45.698Z,5.45
2023-05-01T19:31:50.445Z,5.10
2023-05-01T19:34:56.041Z,6.55
2023-05-01T19:38:00.599Z,8.10
2023-05-01T19:41:08.027Z,8.48
2023-05-01T19:44:12.265Z,8.55
2023-05-01T19:47:16.675Z,11.00
2023-05-01T19:50:21.065Z,12.60
2023-05-01T19:53:25.223Z,12.07
2023-05-01T19:56:30.043Z,8.20
2023-05-01T19:59:36.258Z,8.35
2023-05-01T20:02:41.600Z,11.60
2023-05-01T20:05:45.825Z,10.60
2023-05-01T20:11:54.312Z,11.27
2023-05-01T20:15:03.748Z,14.35
2023-05-01T20:18:09.169Z,12.90
2023-05-01T20:21:13.815Z,19.20
2023-05-01T20:24:18.070Z,19.13
2023-05-01T20:27:22.669Z,14.57
2023-05-01T20:30:26.790Z,14.23
2023-05-01T20:33:31.162Z,20.42
2023-05-01T20:36:35.797Z,18.15
2023-05-01T20:39:40.116Z,17.08
2023-05-01T20:42:44.614Z,22.73
2023-05-01T20:45:48.908Z,21.05
2023-05-01T20:48:54.222Z,21.27
2023-05-01T20:51:59.034Z,24.17
2023-05-01T20:55:04.092Z,24.13
2023-05-01T20:58:08.484Z,23.73
2023-05-01T21:01:12.600Z,24.17
2023-05-01T21:04:17.280Z,26.30
2023-05-01T21:07:21.656Z,25.58
2023-05-01T21:10:25.922Z,30.10
2023-05-01T21:13:32.180Z,20.77
2023-05-01T21:16:37.633Z,23.45
2023-05-01T21:19:45.584Z,23.58
2023-05-01T21:22:49.821Z,24.75
2023-05-01T21:25:54.657Z,23.30
2023-05-01T21:28:59.044Z,24.35
2023-05-01T21:32:04.202Z,26.33
2023-05-01T21:35:10.146Z,28.58
2023-05-01T21:38:15.503Z,31.10
2023-05-01T21:41:20.210Z,30.70
2023-05-01T21:44:30.027Z,26.27
2023-05-01T21:47:40.472Z,25.80
2023-05-01T21:50:49.852Z,30.88
2023-05-01T21:53:55.560Z,38.53
2023-05-01T21:57:00.930Z,33.35
2023-05-01T22:00:09.699Z,33.20
2023-05-01T22:03:18.142Z,32.53
2023-05-01T22:06:25.769Z,34.95
2023-05-01T22:09:31.733Z,31.10
2023-05-01T22:12:36.399Z,38.47
2023-05-01T22:15:40.907Z,32.15
2023-05-01T22:18:48.633Z,36.92
2023-05-01T22:21:54.383Z,39.40
2023-05-01T22:24:59.046Z,43.22
2023-05-01T22:28:05.587Z,43.95
2023-05-01T22:31:10.112Z,40.42
2023-05-01T22:34:14.531Z,45.25
2023-05-01T22:37:19.528Z,42.33
2023-05-01T22:40:24.377Z,41.90
2023-05-01T22:43:29.052Z,45.38
2023-05-01T22:46:33.828Z,46.95
2023-05-01T22:49:38.712Z,51.58
2023-05-01T22:52:44.691Z,50.67
2023-05-01T22:55:51.025Z,51.40
2023-05-01T22:58:55.640Z,56.88
2023-05-01T23:02:04.111Z,54.97
2023-05-01T23:05:10.336Z,59.95
2023-05-01T23:08:14.485Z,56.20
2023-05-01T23:11:19.618Z,63.67
2023-05-01T23:14:25.412Z,61.58
2023-05-01T23:17:35.145Z,53.28
2023-05-01T23:20:40.644Z,61.30
2023-05-01T23:23:46.989Z,49.05
2023-05-01T23:26:51.360Z,55.63
2023-05-01T23:29:58.860Z,51.88
2023-05-01T23:33:05.978Z,51.95
2023-05-01T23:36:12.455Z,42.08
2023-05-01T23:39:16.588Z,47.08
2023-05-01T23:42:22.703Z,42.95
2023-05-01T23:45:27.047Z,43.08
2023-05-01T23:48:33.402Z,46.15
2023-05-01T23:51:38.199Z,48.33
2023-05-01T23:54:42.564Z,52.33
2023-05-01T23:57:46.964Z,53.05
